sensor_id;sensor_type;location;lat;lon;timestamp;P1;durP1;ratioP1;P2;durP2;ratioP2
32216;SDS011;18709;51.140;4.088;2022-11-30T00:00:35;33.15;;;16.92;;
32216;SDS011;18709;51.140;4.088;2022-11-30T00:03:01;37.33;;;16.95;;
32216;SDS011;18709;51.140;4.088;2022-11-30T00:05:28;33.50;;;17.13;;
32216;SDS011;18709;51.140;4.088;2022-11-30T00:07:53;32.85;;;15.35;;
32216;SDS011;18709;51.140;4.088;2022-11-30T00:10:22;35.55;;;16.73;;
32216;SDS011;18709;51.140;4.088;2022-11-30T00:12:48;36.80;;;17.10;;
32216;SDS011;18709;51.140;4.088;2022-11-30T00:15:14;37.00;;;16.20;;
32216;SDS011;18709;51.140;4.088;2022-11-30T00:17:44;32.38;;;15.18;;
32216;SDS011;18709;51.140;4.088;2022-11-30T00:20:11;32.92;;;15.52;;
32216;SDS011;18709;51.140;4.088;2022-11-30T00:22:37;38.40;;;16.75;;
32216;SDS011;18709;51.140;4.088;2022-11-30T00:25:03;33.40;;;15.85;;
32216;SDS011;18709;51.140;4.088;2022-11-30T00:27:29;34.20;;;16.48;;
32216;SDS011;18709;51.140;4.088;2022-11-30T00:29:56;37.15;;;16.90;;
32216;SDS011;18709;51.140;4.088;2022-11-30T00:32:22;33.47;;;15.98;;
32216;SDS011;18709;51.140;4.088;2022-11-30T00:34:48;35.40;;;16.95;;
32216;SDS011;18709;51.140;4.088;2022-11-30T00:37:13;40.17;;;17.75;;
32216;SDS011;18709;51.140;4.088;2022-11-30T00:39:39;33.15;;;16.67;;
32216;SDS011;18709;51.140;4.088;2022-11-30T00:42:05;33.28;;;15.88;;
32216;SDS011;18709;51.140;4.088;2022-11-30T00:44:31;36.47;;;17.27;;
32216;SDS011;18709;51.140;4.088;2022-11-30T00:46:56;37.17;;;17.60;;
32216;SDS011;18709;51.140;4.088;2022-11-30T00:49:22;34.35;;;16.42;;
32216;SDS011;18709;51.140;4.088;2022-11-30T00:51:47;44.35;;;18.10;;
32216;SDS011;18709;51.140;4.088;2022-11-30T00:54:13;39.67;;;17.23;;
32216;SDS011;18709;51.140;4.088;2022-11-30T00:56:39;37.13;;;17.52;;
32216;SDS011;18709;51.140;4.088;2022-11-30T00:59:04;38.33;;;18.30;;
32216;SDS011;18709;51.140;4.088;2022-11-30T01:01:30;39.08;;;17.48;;
32216;SDS011;18709;51.140;4.088;2022-11-30T01:03:57;62.28;;;27.00;;
32216;SDS011;18709;51.140;4.088;2022-11-30T01:06:23;61.10;;;25.88;;
32216;SDS011;18709;51.140;4.088;2022-11-30T01:08:48;50.92;;;21.10;;
32216;SDS011;18709;51.140;4.088;2022-11-30T01:11:15;48.70;;;21.50;;
32216;SDS011;18709;51.140;4.088;2022-11-30T01:13:46;62.28;;;27.65;;
32216;SDS011;18709;51.140;4.088;2022-11-30T01:16:13;51.97;;;23.85;;
32216;SDS011;18709;51.140;4.088;2022-11-30T01:18:41;43.15;;;19.30;;
32216;SDS011;18709;51.140;4.088;2022-11-30T01:21:08;41.25;;;18.65;;
32216;SDS011;18709;51.140;4.088;2022-11-30T01:23:37;39.15;;;17.63;;
32216;SDS011;18709;51.140;4.088;2022-11-30T01:26:03;41.20;;;18.30;;
32216;SDS011;18709;51.140;4.088;2022-11-30T01:28:29;45.17;;;18.65;;
32216;SDS011;18709;51.140;4.088;2022-11-30T01:30:58;43.38;;;17.88;;
32216;SDS011;18709;51.140;4.088;2022-11-30T01:33:26;45.17;;;17.90;;
32216;SDS011;18709;51.140;4.088;2022-11-30T01:36:03;39.78;;;17.83;;
32216;SDS011;18709;51.140;4.088;2022-11-30T01:38:37;39.42;;;17.50;;
32216;SDS011;18709;51.140;4.088;2022-11-30T01:41:05;42.47;;;18.98;;
32216;SDS011;18709;51.140;4.088;2022-11-30T01:43:40;43.30;;;18.92;;
32216;SDS011;18709;51.140;4.088;2022-11-30T01:46:29;48.95;;;18.70;;
32216;SDS011;18709;51.140;4.088;2022-11-30T01:49:20;44.13;;;18.90;;
32216;SDS011;18709;51.140;4.088;2022-11-30T01:51:52;46.63;;;19.58;;
32216;SDS011;18709;51.140;4.088;2022-11-30T01:54:24;47.20;;;20.25;;
32216;SDS011;18709;51.140;4.088;2022-11-30T01:57:16;40.67;;;18.20;;
32216;SDS011;18709;51.140;4.088;2022-11-30T01:59:44;53.45;;;20.83;;
32216;SDS011;18709;51.140;4.088;2022-11-30T02:02:12;49.97;;;18.70;;
32216;SDS011;18709;51.140;4.088;2022-11-30T02:04:38;55.47;;;20.90;;
32216;SDS011;18709;51.140;4.088;2022-11-30T02:07:04;51.60;;;20.48;;
32216;SDS011;18709;51.140;4.088;2022-11-30T02:09:39;50.80;;;20.13;;
32216;SDS011;18709;51.140;4.088;2022-11-30T02:12:07;55.70;;;20.85;;
32216;SDS011;18709;51.140;4.088;2022-11-30T02:14:43;53.67;;;20.77;;
32216;SDS011;18709;51.140;4.088;2022-11-30T02:22:49;57.05;;;20.23;;
32216;SDS011;18709;51.140;4.088;2022-11-30T02:31:28;58.17;;;19.08;;
32216;SDS011;18709;51.140;4.088;2022-11-30T02:33:59;59.05;;;20.42;;
32216;SDS011;18709;51.140;4.088;2022-11-30T02:36:28;60.88;;;20.85;;
32216;SDS011;18709;51.140;4.088;2022-11-30T02:38:55;71.10;;;20.95;;
32216;SDS011;18709;51.140;4.088;2022-11-30T02:41:21;58.20;;;21.15;;
32216;SDS011;18709;51.140;4.088;2022-11-30T02:43:47;56.63;;;19.42;;
32216;SDS011;18709;51.140;4.088;2022-11-30T02:46:15;54.70;;;20.10;;
32216;SDS011;18709;51.140;4.088;2022-11-30T02:49:04;65.15;;;19.13;;
32216;SDS011;18709;51.140;4.088;2022-11-30T02:51:50;49.20;;;17.70;;
32216;SDS011;18709;51.140;4.088;2022-11-30T02:54:19;43.40;;;18.92;;
32216;SDS011;18709;51.140;4.088;2022-11-30T02:56:44;47.63;;;18.27;;
32216;SDS011;18709;51.140;4.088;2022-11-30T02:59:10;56.85;;;19.73;;
32216;SDS011;18709;51.140;4.088;2022-11-30T03:01:36;54.67;;;19.70;;
32216;SDS011;18709;51.140;4.088;2022-11-30T03:04:03;53.33;;;19.67;;
32216;SDS011;18709;51.140;4.088;2022-11-30T03:06:29;54.03;;;20.45;;
32216;SDS011;18709;51.140;4.088;2022-11-30T03:08:55;53.83;;;19.73;;
32216;SDS011;18709;51.140;4.088;2022-11-30T03:11:20;56.20;;;19.38;;
32216;SDS011;18709;51.140;4.088;2022-11-30T03:13:46;49.55;;;18.27;;
32216;SDS011;18709;51.140;4.088;2022-11-30T03:16:12;48.10;;;19.40;;
32216;SDS011;18709;51.140;4.088;2022-11-30T03:18:38;49.15;;;18.98;;
32216;SDS011;18709;51.140;4.088;2022-11-30T03:21:07;44.17;;;17.83;;
32216;SDS011;18709;51.140;4.088;2022-11-30T03:23:34;51.80;;;19.23;;
32216;SDS011;18709;51.140;4.088;2022-11-30T03:26:00;43.78;;;18.33;;
32216;SDS011;18709;51.140;4.088;2022-11-30T03:28:26;45.17;;;18.55;;
32216;SDS011;18709;51.140;4.088;2022-11-30T03:30:52;46.40;;;18.02;;
32216;SDS011;18709;51.140;4.088;2022-11-30T03:33:17;46.25;;;17.83;;
32216;SDS011;18709;51.140;4.088;2022-11-30T03:35:44;48.80;;;20.65;;
32216;SDS011;18709;51.140;4.088;2022-11-30T03:38:09;52.88;;;19.63;;
32216;SDS011;18709;51.140;4.088;2022-11-30T03:40:36;46.92;;;20.08;;
32216;SDS011;18709;51.140;4.088;2022-11-30T03:43:02;46.70;;;19.83;;
32216;SDS011;18709;51.140;4.088;2022-11-30T03:45:28;48.53;;;20.90;;
32216;SDS011;18709;51.140;4.088;2022-11-30T03:47:54;47.65;;;19.65;;
32216;SDS011;18709;51.140;4.088;2022-11-30T03:50:20;43.38;;;18.80;;
32216;SDS011;18709;51.140;4.088;2022-11-30T03:52:46;52.20;;;21.58;;
32216;SDS011;18709;51.140;4.088;2022-11-30T03:55:12;50.25;;;20.23;;
32216;SDS011;18709;51.140;4.088;2022-11-30T03:57:38;51.95;;;20.90;;
32216;SDS011;18709;51.140;4.088;2022-11-30T04:00:04;56.85;;;20.27;;
32216;SDS011;18709;51.140;4.088;2022-11-30T04:02:31;50.40;;;20.48;;
32216;SDS011;18709;51.140;4.088;2022-11-30T04:04:57;54.97;;;22.15;;
32216;SDS011;18709;51.140;4.088;2022-11-30T04:07:23;56.67;;;21.02;;
32216;SDS011;18709;51.140;4.088;2022-11-30T04:09:48;60.78;;;22.90;;
32216;SDS011;18709;51.140;4.088;2022-11-30T04:12:14;56.88;;;22.45;;
32216;SDS011;18709;51.140;4.088;2022-11-30T04:14:40;62.15;;;21.92;;
32216;SDS011;18709;51.140;4.088;2022-11-30T04:17:06;60.55;;;23.08;;
32216;SDS011;18709;51.140;4.088;2022-11-30T04:19:31;59.95;;;22.75;;
32216;SDS011;18709;51.140;4.088;2022-11-30T04:21:57;57.67;;;22.77;;
32216;SDS011;18709;51.140;4.088;2022-11-30T04:24:23;53.80;;;22.30;;
32216;SDS011;18709;51.140;4.088;2022-11-30T04:26:48;63.83;;;23.05;;
32216;SDS011;18709;51.140;4.088;2022-11-30T04:29:14;65.60;;;22.35;;
32216;SDS011;18709;51.140;4.088;2022-11-30T04:31:40;67.38;;;22.48;;
32216;SDS011;18709;51.140;4.088;2022-11-30T04:34:06;60.00;;;22.95;;
32216;SDS011;18709;51.140;4.088;2022-11-30T04:36:31;64.95;;;23.60;;
32216;SDS011;18709;51.140;4.088;2022-11-30T04:38:57;61.75;;;23.85;;
32216;SDS011;18709;51.140;4.088;2022-11-30T04:41:23;68.07;;;23.80;;
32216;SDS011;18709;51.140;4.088;2022-11-30T04:43:48;65.78;;;23.48;;
32216;SDS011;18709;51.140;4.088;2022-11-30T04:46:14;65.13;;;24.25;;
32216;SDS011;18709;51.140;4.088;2022-11-30T04:48:40;64.15;;;24.15;;
32216;SDS011;18709;51.140;4.088;2022-11-30T04:51:06;60.72;;;24.05;;
32216;SDS011;18709;51.140;4.088;2022-11-30T04:53:33;67.97;;;25.20;;
32216;SDS011;18709;51.140;4.088;2022-11-30T04:56:07;62.95;;;25.27;;
32216;SDS011;18709;51.140;4.088;2022-11-30T04:58:34;63.72;;;24.52;;
32216;SDS011;18709;51.140;4.088;2022-11-30T05:01:00;57.50;;;23.13;;
32216;SDS011;18709;51.140;4.088;2022-11-30T05:03:26;60.60;;;24.15;;
32216;SDS011;18709;51.140;4.088;2022-11-30T05:05:52;63.90;;;25.27;;
32216;SDS011;18709;51.140;4.088;2022-11-30T05:08:17;64.53;;;25.60;;
32216;SDS011;18709;51.140;4.088;2022-11-30T05:10:43;63.90;;;25.00;;
32216;SDS011;18709;51.140;4.088;2022-11-30T05:13:09;60.88;;;24.20;;
32216;SDS011;18709;51.140;4.088;2022-11-30T05:15:34;59.22;;;24.88;;
32216;SDS011;18709;51.140;4.088;2022-11-30T05:18:00;63.88;;;25.77;;
32216;SDS011;18709;51.140;4.088;2022-11-30T05:20:27;65.43;;;26.73;;
32216;SDS011;18709;51.140;4.088;2022-11-30T05:22:53;68.78;;;26.55;;
32216;SDS011;18709;51.140;4.088;2022-11-30T05:25:18;69.60;;;26.80;;
32216;SDS011;18709;51.140;4.088;2022-11-30T05:27:44;68.95;;;27.00;;
32216;SDS011;18709;51.140;4.088;2022-11-30T05:30:10;64.30;;;26.85;;
32216;SDS011;18709;51.140;4.088;2022-11-30T05:32:36;70.95;;;28.65;;
32216;SDS011;18709;51.140;4.088;2022-11-30T05:35:02;68.78;;;27.88;;
32216;SDS011;18709;51.140;4.088;2022-11-30T05:37:28;69.47;;;27.20;;
32216;SDS011;18709;51.140;4.088;2022-11-30T05:39:54;68.30;;;28.50;;
32216;SDS011;18709;51.140;4.088;2022-11-30T05:42:20;69.45;;;28.30;;
32216;SDS011;18709;51.140;4.088;2022-11-30T05:44:45;65.18;;;28.42;;
32216;SDS011;18709;51.140;4.088;2022-11-30T05:47:11;60.75;;;26.17;;
32216;SDS011;18709;51.140;4.088;2022-11-30T05:49:37;61.60;;;25.58;;
32216;SDS011;18709;51.140;4.088;2022-11-30T05:52:03;61.85;;;26.02;;
32216;SDS011;18709;51.140;4.088;2022-11-30T05:54:29;54.90;;;24.65;;
32216;SDS011;18709;51.140;4.088;2022-11-30T05:56:55;59.70;;;26.10;;
32216;SDS011;18709;51.140;4.088;2022-11-30T05:59:21;58.83;;;27.17;;
32216;SDS011;18709;51.140;4.088;2022-11-30T06:01:47;61.10;;;27.20;;
32216;SDS011;18709;51.140;4.088;2022-11-30T06:04:13;56.90;;;26.92;;
32216;SDS011;18709;51.140;4.088;2022-11-30T06:06:38;59.83;;;26.60;;
32216;SDS011;18709;51.140;4.088;2022-11-30T06:09:04;54.28;;;25.73;;
32216;SDS011;18709;51.140;4.088;2022-11-30T06:11:30;53.22;;;24.65;;
32216;SDS011;18709;51.140;4.088;2022-11-30T06:13:55;53.40;;;24.30;;
32216;SDS011;18709;51.140;4.088;2022-11-30T06:16:21;58.92;;;25.58;;
32216;SDS011;18709;51.140;4.088;2022-11-30T06:18:47;59.75;;;26.63;;
32216;SDS011;18709;51.140;4.088;2022-11-30T06:21:12;56.97;;;25.65;;
32216;SDS011;18709;51.140;4.088;2022-11-30T06:23:38;61.85;;;25.30;;
32216;SDS011;18709;51.140;4.088;2022-11-30T06:26:05;56.20;;;25.58;;
32216;SDS011;18709;51.140;4.088;2022-11-30T06:28:34;60.17;;;26.13;;
32216;SDS011;18709;51.140;4.088;2022-11-30T06:31:00;61.08;;;25.40;;
32216;SDS011;18709;51.140;4.088;2022-11-30T06:33:27;62.67;;;27.55;;
32216;SDS011;18709;51.140;4.088;2022-11-30T06:35:53;56.85;;;25.67;;
32216;SDS011;18709;51.140;4.088;2022-11-30T06:38:19;56.72;;;25.67;;
32216;SDS011;18709;51.140;4.088;2022-11-30T06:40:46;54.40;;;24.27;;
32216;SDS011;18709;51.140;4.088;2022-11-30T06:43:12;57.92;;;25.55;;
32216;SDS011;18709;51.140;4.088;2022-11-30T06:45:38;57.75;;;25.55;;
32216;SDS011;18709;51.140;4.088;2022-11-30T06:48:04;61.90;;;26.73;;
32216;SDS011;18709;51.140;4.088;2022-11-30T06:50:29;61.35;;;26.20;;
32216;SDS011;18709;51.140;4.088;2022-11-30T06:52:55;53.25;;;24.63;;
32216;SDS011;18709;51.140;4.088;2022-11-30T06:55:22;52.85;;;24.60;;
32216;SDS011;18709;51.140;4.088;2022-11-30T06:57:48;54.00;;;23.88;;
32216;SDS011;18709;51.140;4.088;2022-11-30T07:00:14;50.92;;;24.15;;
32216;SDS011;18709;51.140;4.088;2022-11-30T07:02:40;53.17;;;24.38;;
32216;SDS011;18709;51.140;4.088;2022-11-30T07:05:06;50.20;;;23.60;;
32216;SDS011;18709;51.140;4.088;2022-11-30T07:07:32;55.97;;;25.00;;
32216;SDS011;18709;51.140;4.088;2022-11-30T07:09:57;51.70;;;23.77;;
32216;SDS011;18709;51.140;4.088;2022-11-30T07:12:24;48.20;;;22.15;;
32216;SDS011;18709;51.140;4.088;2022-11-30T07:14:50;49.15;;;23.38;;
32216;SDS011;18709;51.140;4.088;2022-11-30T07:17:17;48.33;;;23.63;;
32216;SDS011;18709;51.140;4.088;2022-11-30T07:19:44;44.78;;;22.73;;
32216;SDS011;18709;51.140;4.088;2022-11-30T07:22:11;47.45;;;22.27;;
32216;SDS011;18709;51.140;4.088;2022-11-30T07:24:37;53.33;;;22.42;;
32216;SDS011;18709;51.140;4.088;2022-11-30T07:27:21;43.50;;;19.88;;
32216;SDS011;18709;51.140;4.088;2022-11-30T07:29:47;45.47;;;21.95;;
32216;SDS011;18709;51.140;4.088;2022-11-30T07:32:15;45.97;;;20.40;;
32216;SDS011;18709;51.140;4.088;2022-11-30T07:34:41;45.28;;;21.42;;
32216;SDS011;18709;51.140;4.088;2022-11-30T07:37:07;47.42;;;21.55;;
32216;SDS011;18709;51.140;4.088;2022-11-30T07:39:33;45.35;;;19.75;;
32216;SDS011;18709;51.140;4.088;2022-11-30T07:41:58;44.15;;;20.83;;
32216;SDS011;18709;51.140;4.088;2022-11-30T07:44:24;44.88;;;20.70;;
32216;SDS011;18709;51.140;4.088;2022-11-30T07:46:50;40.85;;;19.85;;
32216;SDS011;18709;51.140;4.088;2022-11-30T07:49:16;41.05;;;19.90;;
32216;SDS011;18709;51.140;4.088;2022-11-30T07:51:42;38.42;;;19.20;;
32216;SDS011;18709;51.140;4.088;2022-11-30T07:54:08;43.58;;;20.30;;
32216;SDS011;18709;51.140;4.088;2022-11-30T07:56:33;43.50;;;20.60;;
32216;SDS011;18709;51.140;4.088;2022-11-30T07:59:00;43.80;;;20.33;;
32216;SDS011;18709;51.140;4.088;2022-11-30T08:01:27;42.50;;;20.45;;
32216;SDS011;18709;51.140;4.088;2022-11-30T08:03:56;45.72;;;20.48;;
32216;SDS011;18709;51.140;4.088;2022-11-30T08:06:23;44.95;;;21.40;;
32216;SDS011;18709;51.140;4.088;2022-11-30T08:08:52;44.25;;;21.00;;
32216;SDS011;18709;51.140;4.088;2022-11-30T08:11:20;40.05;;;19.35;;
32216;SDS011;18709;51.140;4.088;2022-11-30T08:13:47;42.35;;;20.33;;
32216;SDS011;18709;51.140;4.088;2022-11-30T08:16:17;42.88;;;19.95;;
32216;SDS011;18709;51.140;4.088;2022-11-30T08:18:48;44.00;;;19.58;;
32216;SDS011;18709;51.140;4.088;2022-11-30T08:21:15;41.67;;;20.90;;
32216;SDS011;18709;51.140;4.088;2022-11-30T08:23:43;44.25;;;20.98;;
32216;SDS011;18709;51.140;4.088;2022-11-30T08:26:12;43.45;;;20.92;;
32216;SDS011;18709;51.140;4.088;2022-11-30T08:28:38;46.38;;;21.63;;
32216;SDS011;18709;51.140;4.088;2022-11-30T08:31:05;43.00;;;21.88;;
32216;SDS011;18709;51.140;4.088;2022-11-30T08:33:34;44.90;;;20.98;;
32216;SDS011;18709;51.140;4.088;2022-11-30T08:36:11;46.88;;;21.77;;
32216;SDS011;18709;51.140;4.088;2022-11-30T08:38:43;43.25;;;20.92;;
32216;SDS011;18709;51.140;4.088;2022-11-30T08:41:10;40.25;;;20.67;;
32216;SDS011;18709;51.140;4.088;2022-11-30T08:43:38;46.58;;;22.05;;
32216;SDS011;18709;51.140;4.088;2022-11-30T08:46:05;43.88;;;21.45;;
32216;SDS011;18709;51.140;4.088;2022-11-30T08:48:33;44.47;;;21.55;;
32216;SDS011;18709;51.140;4.088;2022-11-30T08:51:00;44.95;;;20.80;;
32216;SDS011;18709;51.140;4.088;2022-11-30T08:53:26;45.78;;;21.15;;
32216;SDS011;18709;51.140;4.088;2022-11-30T08:56:02;49.63;;;20.67;;
32216;SDS011;18709;51.140;4.088;2022-11-30T08:58:30;45.05;;;21.88;;
32216;SDS011;18709;51.140;4.088;2022-11-30T09:03:39;45.97;;;21.83;;
32216;SDS011;18709;51.140;4.088;2022-11-30T09:06:07;45.10;;;22.08;;
32216;SDS011;18709;51.140;4.088;2022-11-30T09:08:35;53.05;;;24.52;;
32216;SDS011;18709;51.140;4.088;2022-11-30T09:11:10;50.13;;;23.00;;
32216;SDS011;18709;51.140;4.088;2022-11-30T09:13:44;49.28;;;22.70;;
32216;SDS011;18709;51.140;4.088;2022-11-30T09:16:11;51.35;;;23.38;;
32216;SDS011;18709;51.140;4.088;2022-11-30T09:18:37;46.17;;;22.40;;
32216;SDS011;18709;51.140;4.088;2022-11-30T09:21:04;51.13;;;23.98;;
32216;SDS011;18709;51.140;4.088;2022-11-30T09:23:33;49.90;;;23.20;;
32216;SDS011;18709;51.140;4.088;2022-11-30T09:25:59;52.78;;;23.35;;
32216;SDS011;18709;51.140;4.088;2022-11-30T09:28:28;52.47;;;22.70;;
32216;SDS011;18709;51.140;4.088;2022-11-30T09:31:00;53.08;;;24.80;;
32216;SDS011;18709;51.140;4.088;2022-11-30T09:33:30;51.58;;;23.80;;
32216;SDS011;18709;51.140;4.088;2022-11-30T09:35:57;49.60;;;22.60;;
32216;SDS011;18709;51.140;4.088;2022-11-30T09:38:25;50.33;;;24.52;;
32216;SDS011;18709;51.140;4.088;2022-11-30T09:40:54;47.95;;;23.60;;
32216;SDS011;18709;51.140;4.088;2022-11-30T09:46:15;45.97;;;22.17;;
32216;SDS011;18709;51.140;4.088;2022-11-30T09:48:58;52.15;;;23.77;;
32216;SDS011;18709;51.140;4.088;2022-11-30T09:51:44;46.33;;;23.17;;
32216;SDS011;18709;51.140;4.088;2022-11-30T09:54:21;54.97;;;23.98;;
32216;SDS011;18709;51.140;4.088;2022-11-30T09:57:00;53.40;;;24.13;;
32216;SDS011;18709;51.140;4.088;2022-11-30T09:59:39;52.83;;;24.33;;
32216;SDS011;18709;51.140;4.088;2022-11-30T10:02:16;50.85;;;25.15;;
32216;SDS011;18709;51.140;4.088;2022-11-30T10:04:42;54.10;;;24.23;;
32216;SDS011;18709;51.140;4.088;2022-11-30T10:10:02;56.30;;;25.55;;
32216;SDS011;18709;51.140;4.088;2022-11-30T10:15:52;65.63;;;27.50;;
32216;SDS011;18709;51.140;4.088;2022-11-30T10:21:41;53.87;;;26.73;;
32216;SDS011;18709;51.140;4.088;2022-11-30T10:24:54;60.95;;;26.95;;
32216;SDS011;18709;51.140;4.088;2022-11-30T10:30:19;59.60;;;27.30;;
32216;SDS011;18709;51.140;4.088;2022-11-30T10:32:51;59.85;;;27.45;;
32216;SDS011;18709;51.140;4.088;2022-11-30T10:38:13;56.10;;;25.77;;
32216;SDS011;18709;51.140;4.088;2022-11-30T10:40:45;63.50;;;28.77;;
32216;SDS011;18709;51.140;4.088;2022-11-30T10:46:07;57.58;;;26.88;;
32216;SDS011;18709;51.140;4.088;2022-11-30T10:48:48;57.28;;;26.67;;
32216;SDS011;18709;51.140;4.088;2022-11-30T10:51:26;51.65;;;25.92;;
32216;SDS011;18709;51.140;4.088;2022-11-30T10:53:53;56.53;;;27.05;;
32216;SDS011;18709;51.140;4.088;2022-11-30T10:56:21;57.63;;;27.35;;
32216;SDS011;18709;51.140;4.088;2022-11-30T11:04:17;53.33;;;25.48;;
32216;SDS011;18709;51.140;4.088;2022-11-30T11:06:53;55.55;;;26.05;;
32216;SDS011;18709;51.140;4.088;2022-11-30T11:09:23;54.58;;;25.95;;
32216;SDS011;18709;51.140;4.088;2022-11-30T11:12:17;55.83;;;26.98;;
32216;SDS011;18709;51.140;4.088;2022-11-30T11:17:42;53.00;;;26.13;;
32216;SDS011;18709;51.140;4.088;2022-11-30T11:20:41;56.33;;;26.88;;
32216;SDS011;18709;51.140;4.088;2022-11-30T11:23:04;53.50;;;26.02;;
32216;SDS011;18709;51.140;4.088;2022-11-30T11:28:04;57.22;;;27.45;;
32216;SDS011;18709;51.140;4.088;2022-11-30T11:30:33;63.15;;;28.38;;
32216;SDS011;18709;51.140;4.088;2022-11-30T11:41:17;56.30;;;26.50;;
32216;SDS011;18709;51.140;4.088;2022-11-30T11:46:32;58.40;;;27.83;;
32216;SDS011;18709;51.140;4.088;2022-11-30T11:49:22;54.92;;;27.65;;
32216;SDS011;18709;51.140;4.088;2022-11-30T11:52:00;55.22;;;28.27;;
32216;SDS011;18709;51.140;4.088;2022-11-30T11:57:18;62.20;;;30.63;;
32216;SDS011;18709;51.140;4.088;2022-11-30T12:10:30;64.68;;;32.10;;
32216;SDS011;18709;51.140;4.088;2022-11-30T12:13:32;72.57;;;33.63;;
32216;SDS011;18709;51.140;4.088;2022-11-30T12:27:23;71.97;;;33.37;;
32216;SDS011;18709;51.140;4.088;2022-11-30T12:52:02;61.67;;;30.48;;
32216;SDS011;18709;51.140;4.088;2022-11-30T12:57:58;62.35;;;30.27;;
32216;SDS011;18709;51.140;4.088;2022-11-30T13:03:40;65.20;;;31.38;;
32216;SDS011;18709;51.140;4.088;2022-11-30T13:06:10;66.68;;;33.80;;
32216;SDS011;18709;51.140;4.088;2022-11-30T13:11:45;65.35;;;32.53;;
32216;SDS011;18709;51.140;4.088;2022-11-30T13:14:19;63.67;;;31.67;;
32216;SDS011;18709;51.140;4.088;2022-11-30T13:16:47;62.00;;;30.67;;
32216;SDS011;18709;51.140;4.088;2022-11-30T13:19:25;80.85;;;40.97;;
32216;SDS011;18709;51.140;4.088;2022-11-30T13:25:43;71.00;;;36.78;;
32216;SDS011;18709;51.140;4.088;2022-11-30T13:28:12;72.07;;;37.80;;
32216;SDS011;18709;51.140;4.088;2022-11-30T13:30:58;70.60;;;36.63;;
32216;SDS011;18709;51.140;4.088;2022-11-30T13:33:41;67.75;;;35.28;;
32216;SDS011;18709;51.140;4.088;2022-11-30T13:39:21;59.03;;;29.23;;
32216;SDS011;18709;51.140;4.088;2022-11-30T13:41:50;64.10;;;32.67;;
32216;SDS011;18709;51.140;4.088;2022-11-30T13:44:38;69.00;;;32.35;;
32216;SDS011;18709;51.140;4.088;2022-11-30T13:47:12;66.72;;;33.30;;
32216;SDS011;18709;51.140;4.088;2022-11-30T13:49:54;64.38;;;32.83;;
32216;SDS011;18709;51.140;4.088;2022-11-30T13:56:29;70.35;;;33.00;;
32216;SDS011;18709;51.140;4.088;2022-11-30T13:58:14;62.00;;;30.92;;
32216;SDS011;18709;51.140;4.088;2022-11-30T14:05:45;69.93;;;33.03;;
32216;SDS011;18709;51.140;4.088;2022-11-30T14:10:46;66.75;;;30.92;;
32216;SDS011;18709;51.140;4.088;2022-11-30T14:23:28;57.58;;;28.83;;
32216;SDS011;18709;51.140;4.088;2022-11-30T14:26:08;65.73;;;32.27;;
32216;SDS011;18709;51.140;4.088;2022-11-30T14:31:05;69.78;;;32.83;;
32216;SDS011;18709;51.140;4.088;2022-11-30T14:36:20;71.72;;;34.38;;
32216;SDS011;18709;51.140;4.088;2022-11-30T14:38:50;72.72;;;34.38;;
32216;SDS011;18709;51.140;4.088;2022-11-30T14:41:24;76.90;;;33.85;;
32216;SDS011;18709;51.140;4.088;2022-11-30T14:44:02;77.10;;;34.92;;
32216;SDS011;18709;51.140;4.088;2022-11-30T14:46:40;76.13;;;33.88;;
32216;SDS011;18709;51.140;4.088;2022-11-30T14:49:13;74.22;;;33.25;;
32216;SDS011;18709;51.140;4.088;2022-11-30T14:51:51;74.95;;;33.92;;
32216;SDS011;18709;51.140;4.088;2022-11-30T14:57:20;80.78;;;37.75;;
32216;SDS011;18709;51.140;4.088;2022-11-30T14:59:59;84.90;;;38.03;;
32216;SDS011;18709;51.140;4.088;2022-11-30T15:04:54;84.60;;;39.22;;
32216;SDS011;18709;51.140;4.088;2022-11-30T15:07:21;92.18;;;40.20;;
32216;SDS011;18709;51.140;4.088;2022-11-30T15:09:50;85.03;;;39.67;;
32216;SDS011;18709;51.140;4.088;2022-11-30T15:12:27;90.85;;;41.47;;
32216;SDS011;18709;51.140;4.088;2022-11-30T15:15:27;92.05;;;40.47;;
32216;SDS011;18709;51.140;4.088;2022-11-30T15:20:16;92.47;;;40.58;;
32216;SDS011;18709;51.140;4.088;2022-11-30T15:23:02;92.88;;;42.10;;
32216;SDS011;18709;51.140;4.088;2022-11-30T15:25:47;94.00;;;40.60;;
32216;SDS011;18709;51.140;4.088;2022-11-30T15:28:18;94.32;;;43.83;;
32216;SDS011;18709;51.140;4.088;2022-11-30T15:30:48;85.97;;;41.17;;
32216;SDS011;18709;51.140;4.088;2022-11-30T15:35:46;86.95;;;38.15;;
32216;SDS011;18709;51.140;4.088;2022-11-30T15:38:20;82.18;;;38.33;;
32216;SDS011;18709;51.140;4.088;2022-11-30T15:40:49;79.57;;;38.53;;
32216;SDS011;18709;51.140;4.088;2022-11-30T15:43:22;80.47;;;36.70;;
32216;SDS011;18709;51.140;4.088;2022-11-30T15:45:56;85.38;;;37.72;;
32216;SDS011;18709;51.140;4.088;2022-11-30T15:48:32;77.03;;;36.63;;
32216;SDS011;18709;51.140;4.088;2022-11-30T15:51:03;74.93;;;33.70;;
32216;SDS011;18709;51.140;4.088;2022-11-30T15:53:49;75.95;;;34.53;;
32216;SDS011;18709;51.140;4.088;2022-11-30T15:56:23;70.93;;;31.85;;
32216;SDS011;18709;51.140;4.088;2022-11-30T16:01:54;72.63;;;32.92;;
32216;SDS011;18709;51.140;4.088;2022-11-30T16:07:20;69.78;;;32.22;;
32216;SDS011;18709;51.140;4.088;2022-11-30T16:09:49;72.65;;;34.47;;
32216;SDS011;18709;51.140;4.088;2022-11-30T16:14:50;77.72;;;35.05;;
32216;SDS011;18709;51.140;4.088;2022-11-30T16:17:16;78.47;;;34.78;;
32216;SDS011;18709;51.140;4.088;2022-11-30T16:19:41;75.70;;;34.95;;
32216;SDS011;18709;51.140;4.088;2022-11-30T16:22:08;78.32;;;34.70;;
32216;SDS011;18709;51.140;4.088;2022-11-30T16:24:36;75.30;;;35.05;;
32216;SDS011;18709;51.140;4.088;2022-11-30T16:27:05;76.88;;;35.88;;
32216;SDS011;18709;51.140;4.088;2022-11-30T16:29:43;80.20;;;37.13;;
32216;SDS011;18709;51.140;4.088;2022-11-30T16:32:10;78.40;;;35.10;;
32216;SDS011;18709;51.140;4.088;2022-11-30T16:34:36;80.53;;;36.00;;
32216;SDS011;18709;51.140;4.088;2022-11-30T16:37:02;83.47;;;38.05;;
32216;SDS011;18709;51.140;4.088;2022-11-30T16:39:29;88.80;;;38.35;;
32216;SDS011;18709;51.140;4.088;2022-11-30T16:41:55;88.25;;;38.72;;
32216;SDS011;18709;51.140;4.088;2022-11-30T16:44:21;92.50;;;38.25;;
32216;SDS011;18709;51.140;4.088;2022-11-30T16:46:48;86.55;;;38.97;;
32216;SDS011;18709;51.140;4.088;2022-11-30T16:49:15;84.60;;;37.67;;
32216;SDS011;18709;51.140;4.088;2022-11-30T16:51:41;90.05;;;38.08;;
32216;SDS011;18709;51.140;4.088;2022-11-30T16:54:13;82.00;;;36.95;;
32216;SDS011;18709;51.140;4.088;2022-11-30T16:56:40;88.20;;;38.05;;
32216;SDS011;18709;51.140;4.088;2022-11-30T16:59:06;79.65;;;35.92;;
32216;SDS011;18709;51.140;4.088;2022-11-30T17:01:37;85.07;;;37.03;;
32216;SDS011;18709;51.140;4.088;2022-11-30T17:04:24;77.20;;;35.60;;
32216;SDS011;18709;51.140;4.088;2022-11-30T17:06:51;81.13;;;36.65;;
32216;SDS011;18709;51.140;4.088;2022-11-30T17:09:18;81.18;;;35.92;;
32216;SDS011;18709;51.140;4.088;2022-11-30T17:11:45;82.32;;;37.17;;
32216;SDS011;18709;51.140;4.088;2022-11-30T17:14:14;79.53;;;36.58;;
32216;SDS011;18709;51.140;4.088;2022-11-30T17:16:40;74.80;;;34.58;;
32216;SDS011;18709;51.140;4.088;2022-11-30T17:19:06;75.32;;;34.67;;